Time;durP1;ratioP1;P1;durP2;ratioP2;P2;SDS_P1;SDS_P2;PMS_P1;PMS_P2;Temp;Humidity;BMP_temperature;BMP_pressure;BME280_temperature;BME280_humidity;BME280_pressure;Samples;Min_cycle;Max_cycle;Signal;HPM_P1;HPM_P2
2021/11/08 00:02:14;;;;;;;19.45;3.60;;;;;;;;;;5094715;28;20089;-90
2021/11/08 00:04:39;;;;;;;20.63;3.47;;;;;;;;;;5084916;28;20147;-91
2021/11/08 00:07:05;;;;;;;23.83;4.05;;;;;;;;;;5095282;28;20052;-91
2021/11/08 00:09:31;;;;;;;18.92;3.38;;;;;;;;;;5096073;28;20024;-91
2021/11/08 00:11:57;;;;;;;18.95;3.60;;;;;;;;;;5094475;28;20031;-91
2021/11/08 00:14:23;;;;;;;23.52;3.58;;;;;;;;;;5094399;28;20058;-91
2021/11/08 00:19:51;;;;;;;21.80;3.63;;;;;;;;;;5095928;28;20542;-91
2021/11/08 00:22:16;;;;;;;20.17;3.83;;;;;;;;;;5096398;28;20038;-91
2021/11/08 00:24:47;;;;;;;25.50;3.42;;;;;;;;;;5094665;28;20115;-91
2021/11/08 00:27:12;;;;;;;18.75;3.15;;;;;;;;;;5097854;28;20027;-90
2021/11/08 00:29:37;;;;;;;23.48;3.88;;;;;;;;;;5086071;28;20084;-90
2021/11/08 00:32:04;;;;;;;19.58;3.35;;;;;;;;;;5095835;28;20028;-91
2021/11/08 00:34:30;;;;;;;18.63;2.78;;;;;;;;;;5094278;28;20038;-91
2021/11/08 00:36:55;;;;;;;15.77;2.70;;;;;;;;;;5094881;28;20036;-91
2021/11/08 00:39:22;;;;;;;17.25;3.33;;;;;;;;;;5095901;28;20030;-89
2021/11/08 00:41:47;;;;;;;19.45;2.88;;;;;;;;;;5096327;28;20032;-91
2021/11/08 00:44:12;;;;;;;14.07;2.83;;;;;;;;;;5096616;28;20069;-90
2021/11/08 00:46:38;;;;;;;20.95;3.13;;;;;;;;;;5095640;28;20023;-90
2021/11/08 00:49:04;;;;;;;13.68;3.08;;;;;;;;;;5094662;28;20081;-90
2021/11/08 00:51:34;;;;;;;20.25;3.47;;;;;;;;;;5094248;28;20024;-91
2021/11/08 00:54:00;;;;;;;31.90;5.82;;;;;;;;;;5096786;28;20103;-91
2021/11/08 00:56:25;;;;;;;23.70;3.47;;;;;;;;;;5094639;28;20078;-90
2021/11/08 00:58:51;;;;;;;19.38;3.28;;;;;;;;;;5105053;28;20445;-91
2021/11/08 01:01:21;;;;;;;13.57;3.45;;;;;;;;;;5094837;28;20402;-91
2021/11/08 01:03:48;;;;;;;19.08;3.40;;;;;;;;;;5094718;28;20066;-90
2021/11/08 01:06:15;;;;;;;29.60;3.92;;;;;;;;;;5094808;28;20024;-91
2021/11/08 01:08:41;;;;;;;18.65;3.10;;;;;;;;;;5095433;28;20028;-91
2021/11/08 01:11:07;;;;;;;21.77;3.92;;;;;;;;;;5096129;28;20020;-91
2021/11/08 01:13:34;;;;;;;19.90;2.97;;;;;;;;;;5095742;28;20028;-91
2021/11/08 01:16:00;;;;;;;19.80;3.17;;;;;;;;;;5105668;28;20035;-90
2021/11/08 01:18:26;;;;;;;19.05;3.05;;;;;;;;;;5113032;28;20028;-90
2021/11/08 01:20:51;;;;;;;23.88;3.60;;;;;;;;;;5111076;28;20028;-90
2021/11/08 01:23:20;;;;;;;24.17;3.20;;;;;;;;;;5102216;28;20024;-91
2021/11/08 01:25:53;;;;;;;23.98;4.40;;;;;;;;;;5101580;28;20028;-90
2021/11/08 01:28:19;;;;;;;23.08;3.88;;;;;;;;;;5111099;28;20088;-91
2021/11/08 01:30:44;;;;;;;21.38;3.25;;;;;;;;;;5094920;28;20027;-90
2021/11/08 01:33:16;;;;;;;16.92;2.88;;;;;;;;;;5076314;28;20043;-91
2021/11/08 01:35:43;;;;;;;14.90;3.03;;;;;;;;;;5094882;28;20028;-91
2021/11/08 01:38:13;;;;;;;24.58;3.63;;;;;;;;;;5090836;28;20032;-91
2021/11/08 01:40:41;;;;;;;21.70;3.50;;;;;;;;;;5098043;28;20063;-91
2021/11/08 01:43:08;;;;;;;20.88;3.47;;;;;;;;;;5097755;28;20506;-91
2021/11/08 01:45:34;;;;;;;20.75;3.05;;;;;;;;;;5099257;28;20055;-91
2021/11/08 01:47:59;;;;;;;29.73;3.65;;;;;;;;;;5099765;28;20024;-90
2021/11/08 01:50:26;;;;;;;20.05;4.15;;;;;;;;;;5090743;28;20102;-90
2021/11/08 01:52:53;;;;;;;19.88;3.78;;;;;;;;;;5082703;28;20020;-90
2021/11/08 01:55:20;;;;;;;16.38;3.15;;;;;;;;;;5088635;28;20089;-90
2021/11/08 01:57:45;;;;;;;16.50;3.22;;;;;;;;;;5100737;28;20055;-91
2021/11/08 02:00:13;;;;;;;16.65;3.10;;;;;;;;;;5098910;28;20054;-90
2021/11/08 02:02:39;;;;;;;17.48;3.35;;;;;;;;;;5102113;28;20020;-90
2021/11/08 02:05:04;;;;;;;23.30;3.22;;;;;;;;;;5099027;28;20024;-90
2021/11/08 02:07:31;;;;;;;14.90;2.80;;;;;;;;;;5099268;28;20079;-91
2021/11/08 02:09:57;;;;;;;28.50;2.75;;;;;;;;;;5097825;28;20081;-89
2021/11/08 02:12:23;;;;;;;23.92;3.38;;;;;;;;;;5098405;28;20539;-90
2021/11/08 02:14:48;;;;;;;17.05;2.80;;;;;;;;;;5097544;28;20055;-91
2021/11/08 02:17:14;;;;;;;11.60;2.60;;;;;;;;;;5096378;28;20035;-90
2021/11/08 02:19:40;;;;;;;22.60;2.75;;;;;;;;;;5097696;28;20067;-91
2021/11/08 02:22:06;;;;;;;20.55;2.95;;;;;;;;;;5098714;28;20031;-91
2021/11/08 02:24:32;;;;;;;16.10;3.67;;;;;;;;;;5098002;28;20020;-91
2021/11/08 02:26:57;;;;;;;23.15;3.80;;;;;;;;;;5095951;28;20035;-90
2021/11/08 02:29:23;;;;;;;17.30;3.38;;;;;;;;;;5097400;28;20024;-90
2021/11/08 02:31:51;;;;;;;22.80;2.95;;;;;;;;;;5096060;28;20027;-90
2021/11/08 02:34:17;;;;;;;23.70;2.97;;;;;;;;;;5096886;28;20024;-90
2021/11/08 02:36:43;;;;;;;19.70;3.72;;;;;;;;;;5096932;28;20034;-90
2021/11/08 02:39:34;;;;;;;27.88;3.25;;;;;;;;;;5097361;28;20383;-90
2021/11/08 02:42:00;;;;;;;20.00;3.78;;;;;;;;;;5107586;28;20004;-89
2021/11/08 02:44:25;;;;;;;24.40;3.30;;;;;;;;;;5096202;28;20032;-90
2021/11/08 02:46:53;;;;;;;17.98;3.08;;;;;;;;;;5096211;28;20048;-91
2021/11/08 02:49:28;;;;;;;28.15;4.25;;;;;;;;;;5087493;28;20035;-90
2021/11/08 02:52:02;;;;;;;26.60;3.88;;;;;;;;;;5086697;28;20055;-90
2021/11/08 02:54:33;;;;;;;19.20;3.30;;;;;;;;;;5097530;28;20020;-91
2021/11/08 02:57:00;;;;;;;17.17;3.03;;;;;;;;;;5097218;28;20035;-90
2021/11/08 02:59:28;;;;;;;20.48;3.78;;;;;;;;;;5104033;28;20012;-89
2021/11/08 03:01:54;;;;;;;12.07;2.90;;;;;;;;;;5109762;28;20560;-90
2021/11/08 03:04:25;;;;;;;19.65;3.58;;;;;;;;;;5098260;28;20483;-90
2021/11/08 03:06:50;;;;;;;22.77;3.30;;;;;;;;;;5090497;28;20052;-90
2021/11/08 03:09:20;;;;;;;25.40;3.70;;;;;;;;;;5087940;28;20035;-91
2021/11/08 03:11:48;;;;;;;20.23;2.92;;;;;;;;;;5096006;28;20051;-91
2021/11/08 03:14:17;;;;;;;16.65;3.30;;;;;;;;;;5095753;28;20031;-90
2021/11/08 03:16:52;;;;;;;15.15;3.10;;;;;;;;;;5085687;28;20028;-90
2021/11/08 03:19:25;;;;;;;14.73;3.15;;;;;;;;;;5095249;28;20020;-90
2021/11/08 03:21:55;;;;;;;14.65;3.95;;;;;;;;;;5095019;28;20448;-90
2021/11/08 03:30:33;;;;;;;21.60;4.10;;;;;;;;;;5086999;28;20415;-90
2021/11/08 03:32:59;;;;;;;21.13;2.75;;;;;;;;;;5096437;28;20395;-90
2021/11/08 03:35:26;;;;;;;19.70;2.78;;;;;;;;;;5093793;28;20020;-89
2021/11/08 03:37:54;;;;;;;16.35;3.53;;;;;;;;;;5091569;28;20028;-90
2021/11/08 03:40:29;;;;;;;14.20;2.97;;;;;;;;;;5084902;28;20020;-90
2021/11/08 03:42:55;;;;;;;18.90;2.95;;;;;;;;;;5075719;28;20050;-90
2021/11/08 03:45:23;;;;;;;18.50;3.20;;;;;;;;;;5083945;28;20031;-90
2021/11/08 03:47:50;;;;;;;20.25;3.60;;;;;;;;;;5096387;28;20059;-90
2021/11/08 03:50:16;;;;;;;19.02;3.63;;;;;;;;;;5094546;28;20063;-90
2021/11/08 03:52:42;;;;;;;18.88;4.70;;;;;;;;;;5095262;28;20031;-90
2021/11/08 03:55:09;;;;;;;19.13;4.30;;;;;;;;;;5096272;28;20020;-90
2021/11/08 03:57:35;;;;;;;21.00;3.70;;;;;;;;;;5094700;28;20386;-89
2021/11/08 04:00:01;;;;;;;23.35;3.42;;;;;;;;;;5103665;28;20083;-90
2021/11/08 04:02:26;;;;;;;14.77;3.25;;;;;;;;;;5110086;28;20062;-90
2021/11/08 04:04:52;;;;;;;15.77;2.80;;;;;;;;;;5096702;28;20505;-90
2021/11/08 04:07:17;;;;;;;15.18;2.78;;;;;;;;;;5095687;28;20103;-90
2021/11/08 04:09:44;;;;;;;21.05;3.70;;;;;;;;;;5095854;28;20047;-90
2021/11/08 04:12:09;;;;;;;13.50;3.05;;;;;;;;;;5094803;28;20028;-90
2021/11/08 04:14:37;;;;;;;15.82;3.25;;;;;;;;;;5095094;28;20031;-90
2021/11/08 04:17:03;;;;;;;19.35;4.40;;;;;;;;;;5093864;28;20475;-90
2021/11/08 04:19:30;;;;;;;25.35;4.10;;;;;;;;;;5095521;28;20032;-90
2021/11/08 04:21:58;;;;;;;17.48;3.70;;;;;;;;;;5095055;28;20156;-90
2021/11/08 04:24:24;;;;;;;17.35;4.32;;;;;;;;;;5097252;28;20430;-90
2021/11/08 04:26:50;;;;;;;19.20;3.67;;;;;;;;;;5095110;28;20437;-89
2021/11/08 04:29:15;;;;;;;15.43;3.33;;;;;;;;;;5095761;28;20035;-90
2021/11/08 04:31:42;;;;;;;21.02;4.93;;;;;;;;;;5094923;28;20028;-91
2021/11/08 04:39:43;;;;;;;12.82;3.85;;;;;;;;;;5076217;28;20097;-90
2021/11/08 04:42:24;;;;;;;19.70;4.55;;;;;;;;;;5092919;28;20505;-89
2021/11/08 04:45:10;;;;;;;15.77;4.47;;;;;;;;;;5096042;28;20081;-90
2021/11/08 04:47:59;;;;;;;24.30;5.07;;;;;;;;;;5096669;28;20053;-90
2021/11/08 04:50:34;;;;;;;33.25;5.70;;;;;;;;;;5094220;28;20119;-90
2021/11/08 04:58:15;;;;;;;26.10;4.88;;;;;;;;;;5089150;28;20036;-90
2021/11/08 05:28:04;;;;;;;23.92;7.18;;;;;;;;;;5100616;28;20051;-91
2021/11/08 05:30:30;;;;;;;30.73;7.20;;;;;;;;;;5104555;28;20036;-91
2021/11/08 05:32:56;;;;;;;17.77;6.90;;;;;;;;;;5099701;28;20132;-91
2021/11/08 05:35:21;;;;;;;27.50;7.40;;;;;;;;;;5099936;28;20514;-90
2021/11/08 05:37:47;;;;;;;24.10;7.68;;;;;;;;;;5106489;28;20024;-91
2021/11/08 05:40:22;;;;;;;19.98;6.85;;;;;;;;;;5104314;28;20035;-91
2021/11/08 05:42:48;;;;;;;25.65;6.72;;;;;;;;;;5117691;28;20025;-89
2021/11/08 05:45:16;;;;;;;32.80;7.97;;;;;;;;;;5108179;28;20394;-89
2021/11/08 05:47:43;;;;;;;29.48;7.60;;;;;;;;;;5114215;28;20047;-91
2021/11/08 05:50:11;;;;;;;27.88;8.55;;;;;;;;;;5087775;28;20032;-91
2021/11/08 05:52:36;;;;;;;22.35;7.78;;;;;;;;;;5097611;28;20020;-91
2021/11/08 05:55:04;;;;;;;33.22;8.57;;;;;;;;;;5106662;28;20046;-89
2021/11/08 05:57:42;;;;;;;26.83;7.88;;;;;;;;;;5102327;28;20048;-91
2021/11/08 06:49:43;;;;;;;22.15;9.55;;;;;;;;;;5086324;28;20031;-91
2021/11/08 06:52:10;;;;;;;28.73;10.15;;;;;;;;;;5113720;28;20062;-90
2021/11/08 06:54:35;;;;;;;34.90;10.07;;;;;;;;;;5105130;28;20091;-90
2021/11/08 06:57:11;;;;;;;31.35;9.68;;;;;;;;;;5099511;28;20047;-90
2021/11/08 06:59:36;;;;;;;24.63;9.43;;;;;;;;;;5098657;28;20119;-91
2021/11/08 07:02:02;;;;;;;31.40;9.10;;;;;;;;;;5102276;28;20055;-90
2021/11/08 07:04:28;;;;;;;28.27;9.38;;;;;;;;;;5101180;28;20024;-91
2021/11/08 07:06:53;;;;;;;22.88;9.60;;;;;;;;;;5097674;28;20030;-91
2021/11/08 07:09:19;;;;;;;25.10;9.50;;;;;;;;;;5099302;28;20053;-91
2021/11/08 07:11:45;;;;;;;41.40;9.82;;;;;;;;;;5099269;28;20051;-90
2021/11/08 07:14:11;;;;;;;29.63;10.05;;;;;;;;;;5098334;28;20032;-91
2021/11/08 07:16:38;;;;;;;35.63;10.05;;;;;;;;;;5098124;28;20031;-91
2021/11/08 07:19:05;;;;;;;29.52;10.10;;;;;;;;;;5097599;28;20047;-91
2021/11/08 07:21:31;;;;;;;27.67;10.98;;;;;;;;;;5097230;28;20060;-90
2021/11/08 07:23:56;;;;;;;27.23;9.77;;;;;;;;;;5097887;28;20031;-91
2021/11/08 07:26:22;;;;;;;27.73;10.48;;;;;;;;;;5098747;28;20494;-90
2021/11/08 07:28:47;;;;;;;27.20;9.93;;;;;;;;;;5099742;28;20027;-91
2021/11/08 07:31:13;;;;;;;25.58;9.70;;;;;;;;;;5098360;28;20044;-90
2021/11/08 07:33:38;;;;;;;21.23;8.82;;;;;;;;;;5100545;28;20154;-90
2021/11/08 07:36:05;;;;;;;34.55;9.68;;;;;;;;;;5097615;28;20082;-90
2021/11/08 07:38:35;;;;;;;29.25;10.32;;;;;;;;;;5099415;28;20055;-91
2021/11/08 07:41:02;;;;;;;24.13;9.13;;;;;;;;;;5100381;28;20047;-91
2021/11/08 07:43:27;;;;;;;32.55;9.90;;;;;;;;;;5097154;28;20073;-91
2021/11/08 07:45:53;;;;;;;24.17;9.07;;;;;;;;;;5098542;28;20040;-90
2021/11/08 07:48:18;;;;;;;27.63;11.00;;;;;;;;;;5099314;28;20056;-91
2021/11/08 07:50:47;;;;;;;27.33;9.05;;;;;;;;;;5097265;28;20118;-91
2021/11/08 07:53:12;;;;;;;22.17;9.77;;;;;;;;;;5097268;28;20151;-91
2021/11/08 07:55:38;;;;;;;31.45;10.65;;;;;;;;;;5099336;28;20137;-91
2021/11/08 07:58:05;;;;;;;36.80;10.52;;;;;;;;;;5096844;28;20035;-91
2021/11/08 08:00:32;;;;;;;27.30;9.50;;;;;;;;;;5097025;28;20035;-90
2021/11/08 08:02:58;;;;;;;28.15;9.65;;;;;;;;;;5096667;28;20020;-90
2021/11/08 08:05:24;;;;;;;32.38;10.52;;;;;;;;;;5098146;28;20120;-91
2021/11/08 08:07:50;;;;;;;37.33;10.05;;;;;;;;;;5099654;28;20027;-90
2021/11/08 08:10:15;;;;;;;23.90;9.63;;;;;;;;;;5097469;28;20064;-90
2021/11/08 08:12:41;;;;;;;24.33;9.00;;;;;;;;;;5099176;28;20131;-90
2021/11/08 08:15:06;;;;;;;23.88;9.13;;;;;;;;;;5096789;28;20132;-90
2021/11/08 08:17:32;;;;;;;22.67;9.38;;;;;;;;;;5097003;28;20568;-90
2021/11/08 08:19:57;;;;;;;27.70;9.27;;;;;;;;;;5097576;28;20027;-91
2021/11/08 08:22:24;;;;;;;27.40;9.02;;;;;;;;;;5096922;28;20510;-90
2021/11/08 08:24:50;;;;;;;33.65;9.18;;;;;;;;;;5097582;28;20071;-90
2021/11/08 08:27:16;;;;;;;24.95;8.25;;;;;;;;;;5089160;28;20032;-90
2021/11/08 08:29:41;;;;;;;23.30;7.97;;;;;;;;;;5096711;28;20376;-89
2021/11/08 08:32:08;;;;;;;24.75;8.13;;;;;;;;;;5098303;28;20018;-90
2021/11/08 08:34:33;;;;;;;20.80;7.93;;;;;;;;;;5095063;28;20028;-90
2021/11/08 08:36:59;;;;;;;22.20;7.50;;;;;;;;;;5096376;28;20510;-89
2021/11/08 08:39:25;;;;;;;21.27;8.27;;;;;;;;;;5097319;28;20483;-90
2021/11/08 08:41:52;;;;;;;23.45;8.35;;;;;;;;;;5097502;28;20094;-90
2021/11/08 08:44:18;;;;;;;27.60;7.68;;;;;;;;;;5098560;28;20061;-90
2021/11/08 08:46:47;;;;;;;24.45;7.25;;;;;;;;;;5100702;28;20494;-89
2021/11/08 08:49:14;;;;;;;28.83;7.68;;;;;;;;;;5101278;28;20028;-89
2021/11/08 08:51:41;;;;;;;26.02;7.03;;;;;;;;;;5099207;28;20016;-90
2021/11/08 08:54:06;;;;;;;21.52;8.38;;;;;;;;;;5109539;28;20081;-89
2021/11/08 08:56:31;;;;;;;30.90;8.13;;;;;;;;;;5101363;28;20031;-89
2021/11/08 08:58:57;;;;;;;24.30;8.15;;;;;;;;;;5100015;28;20016;-89
2021/11/08 09:01:24;;;;;;;23.80;7.68;;;;;;;;;;5101050;28;20031;-90
2021/11/08 09:03:54;;;;;;;19.25;7.00;;;;;;;;;;5099961;28;20052;-89
2021/11/08 09:06:20;;;;;;;23.27;6.95;;;;;;;;;;5100529;28;20126;-89
2021/11/08 09:08:45;;;;;;;25.85;7.38;;;;;;;;;;5102033;28;20044;-90
2021/11/08 09:11:12;;;;;;;33.05;7.72;;;;;;;;;;5099007;28;20054;-89
2021/11/08 09:13:37;;;;;;;32.58;7.57;;;;;;;;;;5100952;28;20020;-89
2021/11/08 09:16:11;;;;;;;31.15;8.02;;;;;;;;;;5099252;28;20028;-90
2021/11/08 09:18:40;;;;;;;27.88;6.68;;;;;;;;;;5100227;28;20024;-89
2021/11/08 09:21:08;;;;;;;17.65;5.75;;;;;;;;;;5099767;28;20142;-89
2021/11/08 09:23:33;;;;;;;29.10;8.00;;;;;;;;;;5099420;28;20240;-89
2021/11/08 09:25:59;;;;;;;18.35;6.15;;;;;;;;;;5098171;28;20063;-90
2021/11/08 09:28:24;;;;;;;26.05;6.47;;;;;;;;;;5098493;28;20491;-90
2021/11/08 09:30:50;;;;;;;33.67;7.50;;;;;;;;;;5099821;28;20020;-90
2021/11/08 09:33:15;;;;;;;16.52;5.78;;;;;;;;;;5098373;28;20032;-90
2021/11/08 09:35:46;;;;;;;24.92;6.15;;;;;;;;;;5097722;28;20023;-90
2021/11/08 09:38:12;;;;;;;25.33;6.60;;;;;;;;;;5099555;28;20428;-90
2021/11/08 09:40:40;;;;;;;29.38;6.22;;;;;;;;;;5099416;28;20024;-89
2021/11/08 09:43:14;;;;;;;29.15;5.88;;;;;;;;;;5097350;28;20020;-89
2021/11/08 09:45:41;;;;;;;19.80;5.75;;;;;;;;;;5101859;28;20076;-90
2021/11/08 09:48:06;;;;;;;24.88;5.80;;;;;;;;;;5098894;28;20058;-89
2021/11/08 09:50:36;;;;;;;25.98;7.20;;;;;;;;;;5097538;28;20031;-90
2021/11/08 09:53:04;;;;;;;23.98;7.07;;;;;;;;;;5098148;28;20125;-90
2021/11/08 09:55:29;;;;;;;22.85;6.35;;;;;;;;;;5096680;28;20500;-90
2021/11/08 09:57:55;;;;;;;28.90;6.30;;;;;;;;;;5098285;28;20024;-90
2021/11/08 10:00:34;;;;;;;24.48;6.63;;;;;;;;;;5097498;28;20027;-89
2021/11/08 10:03:02;;;;;;;33.30;7.70;;;;;;;;;;5097936;28;20032;-90
2021/11/08 10:05:31;;;;;;;26.00;5.10;;;;;;;;;;5099474;28;20023;-90
2021/11/08 10:07:58;;;;;;;35.15;5.63;;;;;;;;;;5100865;28;20024;-89
2021/11/08 10:10:24;;;;;;;27.20;5.43;;;;;;;;;;5098128;28;20057;-90
2021/11/08 10:12:54;;;;;;;23.92;5.13;;;;;;;;;;5097991;28;20522;-90
2021/11/08 10:15:20;;;;;;;21.77;5.18;;;;;;;;;;5099027;28;20024;-90
2021/11/08 10:17:46;;;;;;;28.90;5.88;;;;;;;;;;5104313;28;20162;-89
2021/11/08 10:20:27;;;;;;;18.88;5.30;;;;;;;;;;5101690;28;20031;-89
2021/11/08 10:22:53;;;;;;;15.27;4.82;;;;;;;;;;5099486;28;20024;-89
2021/11/08 10:25:19;;;;;;;22.95;4.38;;;;;;;;;;5099804;28;20024;-89
2021/11/08 10:27:46;;;;;;;23.08;4.85;;;;;;;;;;5096403;28;20035;-89
2021/11/08 10:30:23;;;;;;;22.55;4.53;;;;;;;;;;5098439;28;20028;-90
2021/11/08 10:33:06;;;;;;;13.45;3.83;;;;;;;;;;5097833;28;20020;-90
2021/11/08 10:35:41;;;;;;;22.67;3.85;;;;;;;;;;5097774;28;20020;-89
2021/11/08 10:38:17;;;;;;;26.52;3.70;;;;;;;;;;5098773;28;20368;-90
2021/11/08 10:41:03;;;;;;;16.88;3.65;;;;;;;;;;5096951;28;20031;-90
2021/11/08 10:43:30;;;;;;;16.58;3.80;;;;;;;;;;5098070;28;20475;-89
2021/11/08 10:45:59;;;;;;;14.95;3.70;;;;;;;;;;5104818;28;20032;-89
2021/11/08 10:48:32;;;;;;;17.42;3.83;;;;;;;;;;5101990;28;20036;-90
2021/11/08 10:51:00;;;;;;;14.52;3.35;;;;;;;;;;5103065;28;20136;-90
2021/11/08 10:53:29;;;;;;;17.98;3.40;;;;;;;;;;5098239;28;20122;-89
2021/11/08 10:55:56;;;;;;;22.15;3.90;;;;;;;;;;5098667;28;20042;-89
2021/11/08 10:58:22;;;;;;;20.25;3.55;;;;;;;;;;5099237;28;20047;-89
2021/11/08 11:00:57;;;;;;;19.25;3.42;;;;;;;;;;5096875;28;20046;-90
2021/11/08 11:03:24;;;;;;;16.80;3.35;;;;;;;;;;5097457;28;20051;-89
2021/11/08 11:06:05;;;;;;;24.80;4.75;;;;;;;;;;5099464;28;20513;-89
2021/11/08 11:08:32;;;;;;;26.00;4.47;;;;;;;;;;5101152;28;20024;-89
2021/11/08 11:11:06;;;;;;;20.10;4.05;;;;;;;;;;5096826;28;20096;-89
2021/11/08 11:13:33;;;;;;;17.85;4.28;;;;;;;;;;5096988;28;20076;-90
2021/11/08 11:16:02;;;;;;;15.30;3.55;;;;;;;;;;5099888;28;20106;-89
2021/11/08 11:18:33;;;;;;;17.50;3.25;;;;;;;;;;5097301;28;20050;-89
2021/11/08 11:21:11;;;;;;;17.27;4.05;;;;;;;;;;5097455;28;20035;-90
2021/11/08 11:23:47;;;;;;;25.02;5.40;;;;;;;;;;5101082;28;20067;-89
2021/11/08 11:26:13;;;;;;;16.23;3.95;;;;;;;;;;5097072;28;20114;-90
2021/11/08 11:28:41;;;;;;;22.08;4.45;;;;;;;;;;5102989;28;20028;-90
2021/11/08 11:31:19;;;;;;;18.23;3.13;;;;;;;;;;5107997;28;20024;-89
2021/11/08 11:33:46;;;;;;;17.90;3.90;;;;;;;;;;5085095;28;20027;-89
2021/11/08 11:36:15;;;;;;;15.90;3.47;;;;;;;;;;5106964;28;20099;-89
2021/11/08 11:38:45;;;;;;;17.27;3.03;;;;;;;;;;5108478;28;20020;-89
2021/11/08 11:41:20;;;;;;;28.25;4.25;;;;;;;;;;5096442;28;20031;-90
2021/11/08 11:44:00;;;;;;;14.75;3.42;;;;;;;;;;5098401;28;20201;-90
2021/11/08 11:46:29;;;;;;;23.90;3.30;;;;;;;;;;5097854;28;20039;-90
2021/11/08 11:48:55;;;;;;;19.25;3.45;;;;;;;;;;5095680;28;20024;-90
2021/11/08 11:51:27;;;;;;;19.63;2.67;;;;;;;;;;5094755;28;20031;-89
2021/11/08 11:53:53;;;;;;;23.25;3.67;;;;;;;;;;5097082;28;20114;-89
2021/11/08 11:56:21;;;;;;;17.65;3.60;;;;;;;;;;5100727;28;20024;-90
2021/11/08 11:58:48;;;;;;;20.52;3.00;;;;;;;;;;5097374;28;20069;-90
2021/11/08 12:01:16;;;;;;;18.10;3.20;;;;;;;;;;5096516;28;20024;-89
2021/11/08 12:03:42;;;;;;;20.33;3.33;;;;;;;;;;5096550;28;20035;-91
2021/11/08 12:06:13;;;;;;;15.35;3.05;;;;;;;;;;5101577;28;20028;-90
2021/11/08 12:08:39;;;;;;;19.33;3.30;;;;;;;;;;5098534;28;20020;-91
2021/11/08 12:11:07;;;;;;;18.30;3.95;;;;;;;;;;5098104;28;20112;-90
2021/11/08 12:13:39;;;;;;;20.08;3.75;;;;;;;;;;5100326;28;20032;-91
2021/11/08 12:16:19;;;;;;;29.23;3.65;;;;;;;;;;5100165;28;20019;-89
2021/11/08 12:18:46;;;;;;;17.90;3.25;;;;;;;;;;5101041;28;20415;-90
2021/11/08 12:21:38;;;;;;;16.73;3.83;;;;;;;;;;5100210;28;20039;-91
2021/11/08 12:24:19;;;;;;;18.20;3.88;;;;;;;;;;5098148;28;20028;-90
2021/11/08 12:26:52;;;;;;;15.38;3.83;;;;;;;;;;5102038;28;20028;-91
2021/11/08 12:29:20;;;;;;;14.73;2.88;;;;;;;;;;5113839;28;20051;-90
2021/11/08 12:31:58;;;;;;;16.80;3.55;;;;;;;;;;5098641;28;20027;-90
2021/11/08 12:34:24;;;;;;;21.70;3.50;;;;;;;;;;5099432;28;20028;-90
2021/11/08 12:36:58;;;;;;;18.23;3.20;;;;;;;;;;5097144;28;20043;-90
2021/11/08 12:39:25;;;;;;;16.55;3.45;;;;;;;;;;5097861;28;20077;-91
2021/11/08 12:41:52;;;;;;;18.35;3.45;;;;;;;;;;5098163;28;20008;-90
2021/11/08 12:44:31;;;;;;;18.63;5.25;;;;;;;;;;5097558;28;20020;-90
2021/11/08 12:46:58;;;;;;;21.08;3.90;;;;;;;;;;5099032;28;20027;-91
2021/11/08 12:49:30;;;;;;;18.05;3.78;;;;;;;;;;5096833;28;20028;-91
2021/11/08 12:51:59;;;;;;;21.27;3.63;;;;;;;;;;5096564;28;20387;-90
2021/11/08 12:54:29;;;;;;;22.10;4.13;;;;;;;;;;5096515;28;20024;-89
2021/11/08 12:57:10;;;;;;;22.70;3.78;;;;;;;;;;5096792;28;20020;-90
2021/11/08 12:59:44;;;;;;;21.75;4.40;;;;;;;;;;5097087;28;20096;-89
2021/11/08 13:02:20;;;;;;;27.90;4.53;;;;;;;;;;5099576;28;20590;-89
2021/11/08 13:04:48;;;;;;;16.88;4.22;;;;;;;;;;5098159;28;20036;-91
2021/11/08 13:07:16;;;;;;;27.73;4.30;;;;;;;;;;5100766;28;20020;-90
2021/11/08 13:09:46;;;;;;;25.92;3.75;;;;;;;;;;5099363;28;20055;-90
2021/11/08 13:12:19;;;;;;;22.50;4.20;;;;;;;;;;5098630;28;20024;-90
2021/11/08 13:14:49;;;;;;;19.63;3.60;;;;;;;;;;5098438;28;20032;-90
2021/11/08 13:17:19;;;;;;;19.75;2.88;;;;;;;;;;5100257;28;20052;-91
2021/11/08 13:19:49;;;;;;;24.50;3.20;;;;;;;;;;5099265;28;20028;-90
2021/11/08 13:22:27;;;;;;;32.10;4.78;;;;;;;;;;5099093;28;20032;-91
2021/11/08 13:25:04;;;;;;;33.42;4.97;;;;;;;;;;5098484;28;20115;-90
2021/11/08 13:27:33;;;;;;;16.55;3.03;;;;;;;;;;5098670;28;20050;-89
2021/11/08 13:30:03;;;;;;;20.85;3.33;;;;;;;;;;5099738;28;20024;-90
2021/11/08 13:32:30;;;;;;;19.33;3.80;;;;;;;;;;5103142;28;20102;-90
2021/11/08 13:34:57;;;;;;;21.13;3.75;;;;;;;;;;5101569;28;20394;-90
2021/11/08 13:37:36;;;;;;;21.73;3.63;;;;;;;;;;5102395;28;20035;-90
2021/11/08 13:40:22;;;;;;;27.55;3.95;;;;;;;;;;5101863;28;20024;-90
2021/11/08 13:42:54;;;;;;;18.55;3.40;;;;;;;;;;5107203;28;20028;-89
2021/11/08 13:45:20;;;;;;;14.43;2.47;;;;;;;;;;5108568;28;20058;-90
2021/11/08 13:47:48;;;;;;;26.23;3.95;;;;;;;;;;5103119;28;20030;-90
2021/11/08 13:50:18;;;;;;;17.90;3.17;;;;;;;;;;5101199;28;20028;-90
2021/11/08 13:52:44;;;;;;;15.88;3.28;;;;;;;;;;5102830;28;20016;-90
2021/11/08 13:55:12;;;;;;;20.05;3.53;;;;;;;;;;5101064;28;20028;-90
2021/11/08 13:57:40;;;;;;;21.67;3.17;;;;;;;;;;5101241;28;20038;-90
2021/11/08 14:00:10;;;;;;;22.23;2.70;;;;;;;;;;5101008;28;20073;-90
2021/11/08 14:02:37;;;;;;;13.93;3.17;;;;;;;;;;5099510;28;20032;-90
2021/11/08 14:05:04;;;;;;;19.23;3.67;;;;;;;;;;5100262;28;20024;-90
2021/11/08 14:07:29;;;;;;;23.05;2.92;;;;;;;;;;5110405;28;20094;-90
2021/11/08 14:09:56;;;;;;;20.98;3.13;;;;;;;;;;5115264;28;20487;-90
2021/11/08 14:12:28;;;;;;;25.10;3.20;;;;;;;;;;5113472;28;20020;-90
2021/11/08 14:14:56;;;;;;;15.48;2.63;;;;;;;;;;5104312;28;20024;-90
2021/11/08 14:17:33;;;;;;;17.38;2.75;;;;;;;;;;5101470;28;20036;-91
2021/11/08 14:20:06;;;;;;;22.08;3.13;;;;;;;;;;5099807;28;20032;-91
2021/11/08 14:22:32;;;;;;;16.33;3.55;;;;;;;;;;5100818;28;20054;-91
2021/11/08 14:25:00;;;;;;;20.02;3.15;;;;;;;;;;5099637;28;20039;-89
2021/11/08 14:27:33;;;;;;;17.55;3.53;;;;;;;;;;5100015;28;20027;-91
2021/11/08 14:30:08;;;;;;;;;;;;;;;;;;5098409;28;20027;-90
2021/11/08 14:32:51;;;;;;;;;;;;;;;;;;;;;
2021/11/08 14:35:23;;;;;;;20.85;3.35;;;;;;;;;;5105892;28;20091;-91
2021/11/08 14:37:58;;;;;;;16.33;3.00;;;;;;;;;;5102831;28;20016;-91
2021/11/08 14:40:36;;;;;;;16.90;2.38;;;;;;;;;;5101055;28;20032;-90
2021/11/08 14:43:14;;;;;;;15.90;2.70;;;;;;;;;;5102196;28;20061;-90
2021/11/08 14:45:41;;;;;;;25.55;3.10;;;;;;;;;;5100497;28;20028;-90
2021/11/08 14:48:06;;;;;;;18.33;2.45;;;;;;;;;;5101219;28;20049;-90
2021/11/08 14:50:35;;;;;;;17.20;3.28;;;;;;;;;;5101574;28;20494;-90
2021/11/08 14:53:07;;;;;;;26.25;2.75;;;;;;;;;;5100805;28;20066;-90
2021/11/08 14:55:36;;;;;;;23.85;3.95;;;;;;;;;;5116488;28;20057;-90
2021/11/08 14:58:13;;;;;;;26.38;3.28;;;;;;;;;;5104006;28;20096;-90
2021/11/08 15:00:41;;;;;;;21.48;4.30;;;;;;;;;;5101611;28;20028;-91
2021/11/08 15:03:14;;;;;;;17.67;3.33;;;;;;;;;;5100714;28;20020;-91
2021/11/08 15:05:41;;;;;;;21.08;4.50;;;;;;;;;;5100010;28;20070;-90
2021/11/08 15:08:12;;;;;;;14.15;2.50;;;;;;;;;;5102944;28;20032;-90
2021/11/08 15:10:45;;;;;;;19.45;2.80;;;;;;;;;;5108984;28;20015;-90
2021/11/08 15:13:11;;;;;;;10.55;2.05;;;;;;;;;;5114729;28;20007;-89
2021/11/08 15:15:49;;;;;;;18.58;3.10;;;;;;;;;;5110469;28;20043;-89
2021/11/08 15:18:22;;;;;;;13.90;4.32;;;;;;;;;;5110521;28;20020;-87
2021/11/08 15:21:06;;;;;;;25.85;3.05;;;;;;;;;;5100702;28;20042;-87
2021/11/08 15:23:41;;;;;;;13.85;2.22;;;;;;;;;;5096964;28;20128;-87
2021/11/08 15:26:13;;;;;;;13.15;2.40;;;;;;;;;;5100730;28;20030;-88
2021/11/08 15:28:52;;;;;;;11.85;2.20;;;;;;;;;;5100012;28;20016;-87
2021/11/08 15:31:29;;;;;;;25.45;2.63;;;;;;;;;;5097768;28;20024;-88
2021/11/08 15:34:03;;;;;;;17.17;2.70;;;;;;;;;;5097466;28;20028;-88
2021/11/08 15:36:35;;;;;;;20.13;3.47;;;;;;;;;;5099811;28;20027;-88
2021/11/08 15:39:09;;;;;;;14.35;2.60;;;;;;;;;;5098214;28;20079;-88
2021/11/08 15:41:36;;;;;;;14.43;2.25;;;;;;;;;;5098475;28;20131;-88
2021/11/08 15:44:05;;;;;;;12.73;2.70;;;;;;;;;;5098628;28;20031;-90
2021/11/08 15:46:30;;;;;;;14.30;2.95;;;;;;;;;;5099554;28;20569;-90
2021/11/08 15:48:58;;;;;;;12.35;2.78;;;;;;;;;;5083345;28;20121;-91
2021/11/08 15:51:26;;;;;;;11.55;2.60;;;;;;;;;;5095743;28;20142;-90
2021/11/08 15:53:56;;;;;;;14.85;3.03;;;;;;;;;;5099121;28;20073;-90
2021/11/08 15:56:22;;;;;;;15.35;2.67;;;;;;;;;;5100104;28;20069;-90
2021/11/08 15:58:48;;;;;;;13.82;1.77;;;;;;;;;;5099697;28;20516;-90
2021/11/08 16:01:13;;;;;;;16.95;2.10;;;;;;;;;;5097239;28;20028;-90
2021/11/08 16:03:39;;;;;;;15.63;2.03;;;;;;;;;;5097863;28;20020;-90
2021/11/08 16:06:05;;;;;;;16.92;2.28;;;;;;;;;;5101229;28;20019;-90
2021/11/08 16:08:31;;;;;;;17.85;2.03;;;;;;;;;;5100926;28;20016;-90
2021/11/08 16:10:56;;;;;;;13.65;1.55;;;;;;;;;;5100043;28;20043;-91
2021/11/08 16:13:36;;;;;;;8.05;1.80;;;;;;;;;;5098572;28;20048;-91
2021/11/08 16:16:02;;;;;;;10.45;1.95;;;;;;;;;;5097662;28;20558;-91
2021/11/08 16:50:07;;;;;;;13.00;2.70;;;;;;;;;;5522553;22;20055;-91